Stations météo

réclame
Mon MeteoGroup
Idre, Suède (2307): Température de l'air & dewpoint: 17.10.2018 11:00:00 - 23.10.2018 11:00:00 (CEST)Idre, Suède (2307): Vitesse du vent & gusts: 17.10.2018 11:00:00 - 23.10.2018 11:00:00 (CEST)Idre, Suède (2307): Direction du vent: 17.10.2018 11:00:00 - 23.10.2018 11:00:00 (CEST)
Date & Time tt [°C] td [°C] ff [km/h] ff [knt] fx [km/h] fx [knt] dd
23.10.2018 11:00:00 -1,0 -2,4 21 12 42 23 NNW
23.10.2018 10:00:00 -1,7 -2,8 28 15 42 23 NNW
23.10.2018 09:00:00 -2,1 -3,1 23 13 30 16 NNW
23.10.2018 08:00:00 -2,2 -3,2 19 11 26 14 NNW
23.10.2018 07:00:00 -2,0 -2,8 15 8 26 14 NNW
23.10.2018 06:00:00 -1,6 -2,9 18 10 26 14 NW
23.10.2018 05:00:00 -1,5 -2,9 13 7 21 11 WNW
23.10.2018 04:00:00 -1,6 -3,0 8 4 19 10 SW
23.10.2018 03:00:00 -1,8 -3,1 8 5 22 12 SSE
23.10.2018 02:00:00 -1,7 -2,8 14 8 30 16 SSE
23.10.2018 01:00:00 -1,7 -2,8 17 9 37 20 SSE
23.10.2018 00:00:00 -1,3 -3,0 20 11 49 27 S
22.10.2018 23:00:00 -0,9 -3,7 24 13 49 27 SW
22.10.2018 22:00:00 0,4 -6,7 24 13 37 20 SW
22.10.2018 21:00:00 0,4 -7,4 18 10 39 21 SW
22.10.2018 20:00:00 0,6 -7,2 24 13 45 25 WSW
22.10.2018 19:00:00 0,4 -7,1 24 13 49 26 WSW
22.10.2018 18:00:00 0,8 -6,3 29 16 64 34 W
22.10.2018 17:00:00 1,6 -5,6 40 22 64 34 W
22.10.2018 16:00:00 3,1 -4,8 42 23 63 34 W
22.10.2018 15:00:00 3,6 -4,8 32 17 54 29 W
22.10.2018 14:00:00 2,8 -4,9 30 16 54 29 W
22.10.2018 13:00:00 2,1 -4,6 35 19 50 27 W
22.10.2018 12:00:00 1,2 -4,9 31 17 46 25 W
22.10.2018 11:00:00 0,2 -4,8 32 17 46 25 W
22.10.2018 10:00:00 -0,6 -5,2 23 13 - - W
22.10.2018 09:00:00 -1,2 -5,1 22 12 - - W
22.10.2018 08:00:00 -1,1 -5,0 23 13 44 24 WSW
22.10.2018 07:00:00 -0,7 -4,8 25 14 44 24 W
22.10.2018 06:00:00 -0,5 -4,0 23 12 31 17 WSW
22.10.2018 05:00:00 -0,2 -3,7 23 12 39 21 WSW
22.10.2018 04:00:00 -0,1 -3,8 25 13 39 21 W
22.10.2018 03:00:00 0,1 -2,6 18 10 37 20 WSW
22.10.2018 02:00:00 0,9 -1,3 22 12 37 20 W
22.10.2018 01:00:00 2,0 -0,4 18 10 33 18 WNW
22.10.2018 00:00:00 2,4 0,0 24 13 31 17 NW
21.10.2018 23:00:00 2,6 1,1 18 10 29 16 WNW
21.10.2018 22:00:00 2,9 0,8 15 8 51 28 WNW
21.10.2018 21:00:00 2,8 1,6 23 13 55 30 NW
21.10.2018 20:00:00 3,7 3,0 38 21 55 30 NNW
21.10.2018 19:00:00 6,1 5,4 20 11 33 18 W
21.10.2018 18:00:00 6,3 5,4 21 12 31 17 SW
21.10.2018 17:00:00 6,1 5,1 19 10 31 17 SW
21.10.2018 16:00:00 5,3 4,3 17 9 31 17 SW
21.10.2018 15:00:00 5,0 3,7 23 12 37 20 SW
21.10.2018 14:00:00 4,2 3,0 20 11 37 20 SW
21.10.2018 13:00:00 4,2 2,7 18 10 30 16 SW
21.10.2018 12:00:00 4,6 2,5 13 7 30 16 SW
21.10.2018 11:00:00 3,3 1,3 18 10 40 22 SW
21.10.2018 10:00:00 3,3 1,0 20 11 40 22 WSW
21.10.2018 09:00:00 2,8 0,9 25 14 35 19 SW
21.10.2018 08:00:00 2,1 0,2 18 10 36 20 SW
21.10.2018 07:00:00 2,3 0,0 24 13 36 20 SW
21.10.2018 06:00:00 2,3 0,0 21 11 37 20 SW
21.10.2018 05:00:00 2,5 0,1 23 12 37 20 WSW
21.10.2018 04:00:00 2,0 -0,3 15 8 34 18 SW
21.10.2018 03:00:00 1,4 -0,4 12 7 39 21 SW
21.10.2018 02:00:00 2,0 -0,3 25 14 39 21 SW
21.10.2018 01:00:00 1,8 -0,5 22 12 36 19 SW
21.10.2018 00:00:00 2,4 -1,6 26 14 34 19 SW
20.10.2018 23:00:00 2,9 -2,0 22 12 34 18 SSW
20.10.2018 22:00:00 2,7 -2,2 24 13 32 18 SSW
20.10.2018 21:00:00 2,6 -1,6 21 11 28 15 SSW
20.10.2018 20:00:00 2,1 -1,7 18 10 26 14 SSW
20.10.2018 19:00:00 2,6 -1,8 18 10 23 13 S
20.10.2018 18:00:00 2,2 -2,3 11 6 13 7 S
20.10.2018 17:00:00 3,9 -1,1 9 5 13 7 SW
20.10.2018 16:00:00 5,5 -2,3 5 3 13 7 WNW
20.10.2018 15:00:00 4,6 -2,3 3 2 23 13 NNW
20.10.2018 14:00:00 4,6 -1,4 5 3 25 13 NW
20.10.2018 13:00:00 3,8 -0,6 11 6 25 13 NNW
20.10.2018 12:00:00 3,2 -0,6 13 7 30 16 NNW
20.10.2018 11:00:00 2,6 -0,5 19 11 39 21 N
20.10.2018 10:00:00 0,8 -1,1 20 11 39 21 NNW
20.10.2018 09:00:00 1,3 -0,9 23 13 33 18 NNW
20.10.2018 08:00:00 0,6 -2,5 17 9 22 12 NW
20.10.2018 07:00:00 0,2 -2,8 13 7 20 11 NW
20.10.2018 06:00:00 0,4 -3,0 13 7 18 10 NW
20.10.2018 05:00:00 0,3 -3,3 11 6 16 9 WNW
20.10.2018 04:00:00 - - - - 17 9 -
20.10.2018 03:00:00 0,7 -3,2 12 7 17 9 W
20.10.2018 02:00:00 1,5 -3,2 9 5 16 9 SW
20.10.2018 01:00:00 1,9 -2,8 14 7 19 11 SW
20.10.2018 00:00:00 2,1 -2,8 14 7 22 12 SW
19.10.2018 23:00:00 1,9 -3,0 16 9 22 12 SW
19.10.2018 22:00:00 1,8 -3,3 18 10 22 12 SSW
19.10.2018 21:00:00 1,8 -3,9 12 6 21 12 SSW
19.10.2018 20:00:00 1,2 -3,9 12 7 22 12 SSE
19.10.2018 19:00:00 2,0 -3,5 13 7 22 12 SSE
19.10.2018 18:00:00 2,2 -3,7 14 8 19 10 SSE
19.10.2018 17:00:00 2,3 -3,2 11 6 19 10 SSE
19.10.2018 16:00:00 3,4 -3,9 12 6 18 10 SSW
19.10.2018 15:00:00 3,6 -3,4 10 6 19 10 SSW
19.10.2018 14:00:00 3,7 -3,3 11 6 19 10 SSW
19.10.2018 13:00:00 3,3 -3,9 9 5 13 7 S
19.10.2018 12:00:00 2,2 -3,5 7 4 13 7 SSW
19.10.2018 11:00:00 3,3 -4,9 7 4 13 7 W
19.10.2018 10:00:00 2,4 -5,0 3 2 30 16 NNW
19.10.2018 09:00:00 1,8 -4,9 10 5 30 16 WNW
19.10.2018 08:00:00 1,5 -4,8 10 5 35 19 WNW
19.10.2018 07:00:00 0,4 -5,0 10 6 35 19 W
19.10.2018 06:00:00 1,1 -4,5 22 12 41 22 NW
19.10.2018 05:00:00 1,3 -4,6 27 14 41 22 WNW
19.10.2018 04:00:00 1,1 -5,0 27 15 37 20 W
19.10.2018 03:00:00 0,0 -5,0 21 11 28 15 WNW
19.10.2018 02:00:00 0,2 -5,4 12 7 42 23 W
19.10.2018 01:00:00 0,4 -5,4 15 8 42 23 W
19.10.2018 00:00:00 1,8 -5,4 28 15 40 22 WNW
18.10.2018 23:00:00 1,7 -5,2 24 13 33 18 WNW
18.10.2018 22:00:00 2,0 -4,7 19 10 36 20 WNW
18.10.2018 21:00:00 2,3 -4,9 19 11 36 20 WNW
18.10.2018 20:00:00 2,4 -5,0 25 14 33 18 W
18.10.2018 19:00:00 2,9 -5,0 26 14 32 17 W
18.10.2018 18:00:00 3,2 -5,0 23 12 35 19 W
18.10.2018 17:00:00 5,1 -4,7 18 10 38 21 W
18.10.2018 16:00:00 5,9 -4,3 24 13 45 25 WSW
18.10.2018 15:00:00 6,0 -3,9 30 16 47 25 W
18.10.2018 14:00:00 5,8 -3,8 28 15 47 25 W
18.10.2018 13:00:00 5,5 -4,4 27 15 42 23 W
18.10.2018 12:00:00 3,9 -3,2 26 14 34 19 W
18.10.2018 11:00:00 3,1 -4,1 13 7 32 18 NW
18.10.2018 10:00:00 2,3 -4,0 17 9 30 16 W
18.10.2018 09:00:00 1,8 -4,1 21 12 30 16 W
18.10.2018 08:00:00 1,6 -4,9 8 5 29 16 NW
18.10.2018 07:00:00 2,3 -4,2 17 9 29 16 WNW
18.10.2018 06:00:00 2,5 -4,0 16 9 31 17 WNW
18.10.2018 05:00:00 2,6 -1,2 14 8 34 19 NW
18.10.2018 04:00:00 3,4 -0,8 17 9 34 19 WNW
18.10.2018 03:00:00 4,0 1,4 22 12 34 19 WNW
18.10.2018 02:00:00 5,2 2,0 26 14 34 19 W
18.10.2018 01:00:00 5,2 2,7 20 11 34 19 WSW
18.10.2018 00:00:00 5,5 3,0 21 11 31 17 WSW
17.10.2018 23:00:00 5,6 3,1 21 11 35 19 WSW
17.10.2018 22:00:00 5,7 3,5 25 14 35 19 SW
17.10.2018 21:00:00 6,2 4,4 21 11 35 19 SW
17.10.2018 20:00:00 6,6 4,8 23 12 35 19 SW
17.10.2018 19:00:00 6,5 4,5 24 13 34 18 SW
17.10.2018 18:00:00 6,7 4,5 22 12 42 23 WSW
17.10.2018 17:00:00 6,7 4,5 25 13 44 24 SW
17.10.2018 16:00:00 6,9 4,9 28 15 53 28 SW
17.10.2018 15:00:00 6,4 4,6 29 16 53 28 SW
17.10.2018 14:00:00 6,4 4,7 26 14 42 23 SW
17.10.2018 13:00:00 5,9 5,0 29 16 40 22 SW
17.10.2018 12:00:00 5,4 4,8 24 13 46 25 SW
17.10.2018 11:00:00 5,1 4,5 29 16 46 25 SW

tt = Température de l'air
td = dewpoint
ff = Vitesse du vent
fx = gusts
dd = Direction du vent

stations d'obs. à proximité